createdAt,value
2019-03-03T00:01:45.858Z,56.01
2019-03-03T00:04:15.488Z,55.72
2019-03-03T00:06:46.187Z,56.05
2019-03-03T00:09:16.407Z,55.90
2019-03-03T00:11:46.111Z,56.41
2019-03-03T00:14:15.719Z,56.30
2019-03-03T00:16:45.841Z,56.71
2019-03-03T00:19:15.547Z,56.99
2019-03-03T00:21:47.185Z,56.50
2019-03-03T00:24:16.904Z,56.25
2019-03-03T00:26:46.615Z,56.33
2019-03-03T00:29:16.837Z,56.33
2019-03-03T00:31:47.673Z,56.36
2019-03-03T00:34:17.486Z,56.75
2019-03-03T00:37:01.049Z,56.72
2019-03-03T00:39:41.186Z,56.79
2019-03-03T00:42:15.831Z,57.01
2019-03-03T00:45:03.331Z,56.77
2019-03-03T00:47:53.509Z,57.19
2019-03-03T00:50:27.725Z,57.13
2019-03-03T00:53:00.396Z,56.96
2019-03-03T00:55:35.738Z,56.87
2019-03-03T00:58:19.580Z,56.98
2019-03-03T01:01:03.329Z,57.17
2019-03-03T01:03:37.710Z,57.48
2019-03-03T01:06:09.086Z,57.67
2019-03-03T01:08:49.957Z,57.86
2019-03-03T01:11:27.046Z,57.78
2019-03-03T01:14:10.918Z,57.81
2019-03-03T01:16:43.246Z,58.03
2019-03-03T01:19:27.210Z,58.20
2019-03-03T01:22:01.507Z,58.11
2019-03-03T01:24:42.481Z,58.30
2019-03-03T01:27:12.286Z,58.20
2019-03-03T01:29:42.415Z,58.24
2019-03-03T01:32:12.216Z,58.09
2019-03-03T01:34:41.820Z,57.94
2019-03-03T01:37:11.943Z,58.50
2019-03-03T01:39:41.652Z,58.19
2019-03-03T01:42:11.357Z,58.31
2019-03-03T01:44:41.427Z,58.36
2019-03-03T01:47:11.182Z,58.22
2019-03-03T01:49:40.881Z,58.43
2019-03-03T01:52:11.011Z,58.34
2019-03-03T01:54:42.253Z,59.01
2019-03-03T01:57:12.331Z,59.15
2019-03-03T01:59:41.999Z,58.61
2019-03-03T02:02:11.691Z,59.11
2019-03-03T02:04:41.814Z,58.95
2019-03-03T02:07:11.514Z,58.94
2019-03-03T02:09:41.526Z,59.29
2019-03-03T02:12:11.856Z,59.73
2019-03-03T02:14:41.568Z,59.38
2019-03-03T02:17:12.547Z,59.00
2019-03-03T02:19:42.725Z,58.81
2019-03-03T02:22:12.424Z,59.06
2019-03-03T02:24:42.239Z,59.03
2019-03-03T02:27:12.357Z,59.02
2019-03-03T02:29:42.002Z,59.02
2019-03-03T02:32:11.775Z,59.69
2019-03-03T02:34:41.822Z,59.16
2019-03-03T02:37:11.499Z,59.22
2019-03-03T02:39:41.186Z,59.26
2019-03-03T02:42:11.530Z,58.92
2019-03-03T02:44:41.238Z,59.30
2019-03-03T02:47:10.945Z,58.74
2019-03-03T02:49:41.176Z,58.40
2019-03-03T02:52:10.873Z,57.56
2019-03-03T02:54:40.586Z,57.37
2019-03-03T02:57:10.805Z,57.59
2019-03-03T02:59:40.614Z,58.37
2019-03-03T03:02:11.829Z,58.62
2019-03-03T03:04:41.976Z,58.34
2019-03-03T03:07:15.985Z,57.95
2019-03-03T03:10:04.863Z,57.95
2019-03-03T03:12:42.245Z,57.75
2019-03-03T03:15:13.971Z,57.76
2019-03-03T03:17:45.229Z,57.73
2019-03-03T03:20:22.571Z,58.16
2019-03-03T03:22:53.793Z,58.20
2019-03-03T03:25:34.332Z,58.50
2019-03-03T03:28:05.555Z,58.67
2019-03-03T03:30:40.118Z,58.51
2019-03-03T03:33:17.383Z,58.68
2019-03-03T03:35:54.868Z,58.78
2019-03-03T03:38:34.819Z,59.13
2019-03-03T03:41:06.576Z,59.45
2019-03-03T03:43:40.482Z,59.78
2019-03-03T03:46:21.353Z,59.69
2019-03-03T03:49:08.779Z,59.93
2019-03-03T03:51:49.541Z,60.04
2019-03-03T03:54:20.791Z,60.63
2019-03-03T03:56:53.508Z,61.28
2019-03-03T03:59:36.705Z,61.48
2019-03-03T04:02:08.450Z,61.65
2019-03-03T04:04:40.733Z,61.69
2019-03-03T04:07:12.581Z,62.19
2019-03-03T04:09:55.796Z,62.68
2019-03-03T04:12:33.538Z,63.25
2019-03-03T04:15:14.059Z,63.10
2019-03-03T04:17:48.690Z,63.51
2019-03-03T04:20:38.155Z,63.09
2019-03-03T04:23:26.295Z,63.07
2019-03-03T04:26:03.288Z,63.10
2019-03-03T04:28:41.176Z,62.89
2019-03-03T04:31:12.417Z,63.01
2019-03-03T04:33:46.805Z,62.95
2019-03-03T04:36:33.544Z,63.63
2019-03-03T04:39:05.297Z,63.29
2019-03-03T04:41:53.136Z,63.44
2019-03-03T04:44:27.550Z,63.78
2019-03-03T04:47:13.874Z,63.75
2019-03-03T04:49:45.439Z,63.75
2019-03-03T04:52:17.058Z,64.20
2019-03-03T04:55:02.736Z,64.31
2019-03-03T04:57:33.979Z,63.84
2019-03-03T05:00:14.346Z,63.73
2019-03-03T05:03:03.968Z,63.83
2019-03-03T05:05:35.878Z,63.77
2019-03-03T05:08:07.099Z,63.81
2019-03-03T05:10:54.144Z,63.70
2019-03-03T05:13:43.413Z,64.26
2019-03-03T05:16:17.936Z,64.07
2019-03-03T05:18:49.267Z,63.84
2019-03-03T05:21:19.496Z,64.23
2019-03-03T05:23:49.227Z,64.06
2019-03-03T05:26:18.871Z,63.86
2019-03-03T05:28:56.093Z,63.92
2019-03-03T05:31:25.899Z,63.76
2019-03-03T05:33:57.145Z,63.66
2019-03-03T05:36:26.853Z,64.44
2019-03-03T05:38:56.561Z,63.85
2019-03-03T05:41:26.888Z,64.40
2019-03-03T05:43:56.549Z,63.52
2019-03-03T05:46:26.223Z,63.46
2019-03-03T05:48:56.324Z,63.56
2019-03-03T05:51:26.024Z,64.23
2019-03-03T05:53:55.719Z,64.20
2019-03-03T05:56:25.737Z,64.24
2019-03-03T05:58:55.391Z,63.78
2019-03-03T06:01:25.166Z,64.10
2019-03-03T06:03:55.288Z,63.47
2019-03-03T06:06:24.992Z,63.50
2019-03-03T06:08:54.694Z,63.33
2019-03-03T06:11:24.794Z,63.04
2019-03-03T06:13:54.532Z,62.36
2019-03-03T06:16:24.227Z,62.67
2019-03-03T06:18:54.352Z,62.48
2019-03-03T06:21:24.061Z,62.28
2019-03-03T06:23:55.616Z,62.09
2019-03-03T06:26:25.674Z,61.45
2019-03-03T06:28:55.439Z,60.83
2019-03-03T06:31:25.093Z,60.57
2019-03-03T06:33:55.266Z,60.21
2019-03-03T06:36:24.976Z,59.86
2019-03-03T06:38:54.663Z,59.91
2019-03-03T06:41:24.791Z,58.91
2019-03-03T06:43:54.451Z,58.70
2019-03-03T06:46:24.428Z,58.75
2019-03-03T06:48:55.569Z,57.36
2019-03-03T06:51:25.272Z,57.28
2019-03-03T06:53:56.626Z,57.50
2019-03-03T06:56:26.738Z,56.92
2019-03-03T06:58:56.452Z,56.31
2019-03-03T07:01:26.112Z,55.99
2019-03-03T07:03:56.205Z,55.01
2019-03-03T07:06:25.988Z,53.67
2019-03-03T07:08:55.692Z,54.03
2019-03-03T07:11:25.787Z,53.93
2019-03-03T07:13:55.500Z,51.54
2019-03-03T07:16:26.379Z,51.14
2019-03-03T07:18:56.715Z,50.25
2019-03-03T07:21:26.497Z,50.29
2019-03-03T07:23:56.161Z,50.15
2019-03-03T07:26:26.317Z,49.92
2019-03-03T07:28:56.025Z,48.58
2019-03-03T07:31:25.686Z,48.16
2019-03-03T07:33:56.173Z,48.07
2019-03-03T07:36:25.867Z,47.97
2019-03-03T07:38:55.686Z,48.03
2019-03-03T07:41:25.802Z,48.08
2019-03-03T07:43:55.505Z,46.79
2019-03-03T07:46:25.173Z,45.80
2019-03-03T07:48:55.439Z,45.31
2019-03-03T07:51:25.137Z,44.29
2019-03-03T07:53:55.153Z,44.76
2019-03-03T07:56:25.277Z,43.68
2019-03-03T07:58:54.981Z,44.02
2019-03-03T08:01:24.644Z,43.83
2019-03-03T08:03:55.146Z,43.43
2019-03-03T08:06:25.033Z,43.71
2019-03-03T08:08:54.701Z,43.46
2019-03-03T08:11:24.749Z,43.10
2019-03-03T08:13:54.462Z,42.82
2019-03-03T08:16:24.128Z,42.51
2019-03-03T08:18:54.285Z,42.56
2019-03-03T08:21:23.944Z,42.61
2019-03-03T08:23:54.333Z,42.17
2019-03-03T08:26:24.541Z,42.28
2019-03-03T08:28:54.196Z,41.88
2019-03-03T08:31:23.958Z,40.55
2019-03-03T08:33:54.176Z,38.66
2019-03-03T08:36:23.828Z,38.41
2019-03-03T08:38:53.492Z,37.62
2019-03-03T08:41:23.712Z,37.30
2019-03-03T08:44:01.104Z,36.99
2019-03-03T08:46:35.925Z,37.33
2019-03-03T08:49:12.889Z,37.18
2019-03-03T08:51:56.641Z,37.08
2019-03-03T08:54:28.000Z,37.11
2019-03-03T08:57:05.854Z,37.64
2019-03-03T08:59:39.941Z,37.27
2019-03-03T09:02:20.770Z,37.36
2019-03-03T09:04:52.213Z,37.04
2019-03-03T09:07:32.682Z,36.09
2019-03-03T09:10:09.768Z,35.82
2019-03-03T09:12:53.806Z,35.82
2019-03-03T09:15:25.527Z,35.76
2019-03-03T09:18:13.611Z,35.58
2019-03-03T09:20:44.950Z,35.53
2019-03-03T09:23:22.436Z,35.84
2019-03-03T09:25:53.680Z,34.71
2019-03-03T09:28:28.265Z,34.93
2019-03-03T09:31:02.363Z,34.77
2019-03-03T09:33:44.620Z,33.33
2019-03-03T09:36:34.190Z,33.50
2019-03-03T09:39:09.048Z,33.16
2019-03-03T09:41:49.471Z,32.97
2019-03-03T09:44:30.253Z,32.23
2019-03-03T09:47:01.465Z,32.21
2019-03-03T09:49:49.637Z,31.20
2019-03-03T09:52:23.746Z,30.69
2019-03-03T09:54:55.501Z,31.69
2019-03-03T09:57:26.846Z,31.96
2019-03-03T10:00:04.384Z,32.34
2019-03-03T10:02:52.212Z,32.35
2019-03-03T10:05:27.629Z,31.82
2019-03-03T10:07:58.862Z,32.71
2019-03-03T10:10:48.943Z,32.21
2019-03-03T10:13:29.358Z,32.46
2019-03-03T10:16:01.069Z,32.24
2019-03-03T10:18:47.504Z,32.61
2019-03-03T10:21:21.977Z,32.53
2019-03-03T10:23:53.192Z,32.63
2019-03-03T10:26:27.795Z,32.45
2019-03-03T10:29:05.273Z,32.30
2019-03-03T10:31:47.922Z,32.71
2019-03-03T10:34:24.939Z,32.10
2019-03-03T10:36:56.689Z,32.27
2019-03-03T10:39:37.250Z,32.09
2019-03-03T10:42:12.080Z,31.46
2019-03-03T10:44:55.298Z,30.91
2019-03-03T10:47:42.115Z,31.75
2019-03-03T10:50:28.574Z,31.10
2019-03-03T10:53:09.349Z,32.09
2019-03-03T10:55:41.597Z,31.77
2019-03-03T10:58:19.569Z,31.29
2019-03-03T11:01:00.011Z,31.30
2019-03-03T11:03:34.841Z,31.92
2019-03-03T11:06:09.119Z,32.02
2019-03-03T11:08:41.023Z,31.74
2019-03-03T11:11:21.480Z,31.73
2019-03-03T11:13:55.964Z,32.09
2019-03-03T11:16:30.515Z,31.58
2019-03-03T11:19:05.383Z,31.50
2019-03-03T11:21:39.011Z,31.61
2019-03-03T11:24:10.680Z,31.74
2019-03-03T11:26:41.896Z,31.26
2019-03-03T11:29:22.826Z,31.69
2019-03-03T11:31:57.080Z,32.78
2019-03-03T11:34:36.679Z,32.72
2019-03-03T11:37:10.888Z,33.44
2019-03-03T11:39:48.449Z,33.76
2019-03-03T11:42:25.755Z,34.67
2019-03-03T11:45:00.344Z,35.11
2019-03-03T11:47:31.637Z,35.27
2019-03-03T11:50:09.397Z,35.76
2019-03-03T11:52:40.763Z,36.01
2019-03-03T11:55:15.606Z,36.89
2019-03-03T11:57:52.791Z,36.34
2019-03-03T12:00:40.946Z,36.05
2019-03-03T12:03:24.398Z,36.31
2019-03-03T12:05:59.289Z,36.57
2019-03-03T12:08:36.786Z,36.73
2019-03-03T12:11:08.646Z,36.48
2019-03-03T12:13:56.273Z,36.84
2019-03-03T12:16:44.404Z,36.95
2019-03-03T12:19:15.656Z,37.16
2019-03-03T12:21:50.630Z,37.02
2019-03-03T12:24:24.576Z,36.81
2019-03-03T12:27:02.340Z,37.08
2019-03-03T12:29:45.434Z,37.26
2019-03-03T12:32:17.173Z,37.33
2019-03-03T12:34:51.539Z,37.32
2019-03-03T12:37:23.848Z,37.11
2019-03-03T12:39:57.769Z,36.91
2019-03-03T12:42:29.499Z,36.27
2019-03-03T12:45:06.623Z,36.35
2019-03-03T12:47:38.347Z,36.29
2019-03-03T12:50:16.053Z,36.52
2019-03-03T12:52:50.670Z,36.82
2019-03-03T12:55:37.211Z,36.81
2019-03-03T12:58:11.661Z,36.63
2019-03-03T13:00:42.879Z,36.66
2019-03-03T13:03:17.577Z,36.58
2019-03-03T13:05:48.916Z,36.41
2019-03-03T13:08:20.580Z,36.40
2019-03-03T13:11:09.860Z,36.67
2019-03-03T13:13:57.661Z,36.36
2019-03-03T13:16:45.449Z,36.25
2019-03-03T13:19:29.205Z,36.29
2019-03-03T13:22:09.267Z,36.11
2019-03-03T13:24:46.786Z,35.74
2019-03-03T13:27:27.137Z,35.69
2019-03-03T13:30:01.599Z,36.08
2019-03-03T13:32:32.920Z,35.88
2019-03-03T13:35:10.408Z,36.00
2019-03-03T13:37:41.843Z,36.04
2019-03-03T13:40:28.892Z,36.21
2019-03-03T13:42:58.575Z,36.08
2019-03-03T13:45:30.162Z,35.95
2019-03-03T13:47:59.930Z,35.28
2019-03-03T13:50:30.057Z,35.54
2019-03-03T13:52:59.768Z,35.62
2019-03-03T13:55:29.421Z,35.88
2019-03-03T13:57:59.520Z,35.89
2019-03-03T14:00:29.257Z,36.08
2019-03-03T14:02:59.000Z,36.24
2019-03-03T14:05:30.092Z,36.12
2019-03-03T14:07:59.858Z,36.23
2019-03-03T14:10:29.665Z,36.49
2019-03-03T14:13:00.135Z,36.54
2019-03-03T14:15:29.900Z,36.69
2019-03-03T14:17:59.539Z,36.47
2019-03-03T14:20:29.826Z,36.11
2019-03-03T14:22:59.473Z,36.27
2019-03-03T14:25:29.143Z,36.31
2019-03-03T14:27:59.359Z,36.31
2019-03-03T14:30:29.868Z,36.35
2019-03-03T14:33:00.008Z,36.62
2019-03-03T14:35:29.693Z,36.64
2019-03-03T14:37:59.349Z,36.85
2019-03-03T14:40:29.750Z,37.09
2019-03-03T14:42:59.663Z,37.03
2019-03-03T14:45:29.417Z,37.23
2019-03-03T14:47:59.594Z,37.40
2019-03-03T14:50:29.240Z,37.54
2019-03-03T14:52:59.010Z,37.60
2019-03-03T14:55:29.434Z,37.59
2019-03-03T14:57:59.140Z,37.79
2019-03-03T15:00:32.232Z,37.81
2019-03-03T15:03:04.318Z,38.02
2019-03-03T15:05:34.102Z,38.12
2019-03-03T15:08:04.356Z,38.19
2019-03-03T15:10:34.135Z,38.29
2019-03-03T15:13:03.848Z,38.46
2019-03-03T15:15:37.107Z,38.53
2019-03-03T15:18:06.943Z,38.64
2019-03-03T15:20:37.065Z,38.49
2019-03-03T15:23:06.772Z,38.88
2019-03-03T15:25:36.480Z,38.97
2019-03-03T15:28:06.601Z,38.91
2019-03-03T15:30:36.255Z,39.05
2019-03-03T15:33:06.021Z,38.94
2019-03-03T15:35:36.235Z,39.25
2019-03-03T15:38:06.113Z,39.25
2019-03-03T15:40:35.874Z,39.48
2019-03-03T15:43:06.182Z,39.54
2019-03-03T15:45:35.893Z,39.47
2019-03-03T15:48:05.595Z,39.69
2019-03-03T15:50:35.714Z,39.74
2019-03-03T15:53:05.424Z,39.83
2019-03-03T15:55:35.134Z,40.10
2019-03-03T15:58:05.353Z,40.17
2019-03-03T16:00:41.830Z,40.26
2019-03-03T16:03:12.050Z,40.50
2019-03-03T16:05:41.851Z,40.54
2019-03-03T16:08:11.568Z,40.68
2019-03-03T16:10:41.783Z,40.41
2019-03-03T16:13:11.486Z,40.46
2019-03-03T16:15:41.197Z,40.60
2019-03-03T16:18:11.229Z,40.54
2019-03-03T16:20:41.026Z,40.58
2019-03-03T16:23:10.858Z,40.87
2019-03-03T16:25:41.035Z,40.88
2019-03-03T16:28:12.307Z,41.07
2019-03-03T16:30:41.969Z,41.21
2019-03-03T16:33:20.244Z,41.17
2019-03-03T16:35:43.580Z,41.36
2019-03-03T16:38:13.806Z,41.50
2019-03-03T16:40:43.608Z,41.49
2019-03-03T16:43:13.527Z,41.57
2019-03-03T16:45:43.639Z,41.59
2019-03-03T16:48:13.367Z,41.33
2019-03-03T16:50:43.016Z,41.25
2019-03-03T16:53:13.203Z,41.26
2019-03-03T16:55:42.900Z,41.31
2019-03-03T16:58:12.705Z,41.49
2019-03-03T17:00:42.811Z,41.29
2019-03-03T17:03:12.479Z,41.15
2019-03-03T17:05:42.750Z,41.35
2019-03-03T17:08:12.897Z,41.67
2019-03-03T17:10:42.700Z,41.83
2019-03-03T17:13:13.411Z,41.68
2019-03-03T17:15:43.629Z,41.84
2019-03-03T17:18:13.405Z,41.92
2019-03-03T17:20:43.143Z,42.17
2019-03-03T17:23:13.364Z,42.16
2019-03-03T17:25:43.092Z,41.94
2019-03-03T17:28:12.757Z,42.36
2019-03-03T17:30:43.107Z,41.92
2019-03-03T17:33:13.576Z,42.04
2019-03-03T17:35:43.317Z,41.99
2019-03-03T17:38:13.507Z,42.02
2019-03-03T17:40:43.581Z,41.79
2019-03-03T17:43:14.994Z,41.94
2019-03-03T17:45:45.862Z,42.22
2019-03-03T17:48:16.506Z,42.14
2019-03-03T17:50:47.240Z,42.25
2019-03-03T17:53:18.261Z,42.72
2019-03-03T17:55:48.490Z,42.49
2019-03-03T17:58:19.233Z,42.65
2019-03-03T18:00:49.647Z,42.71
2019-03-03T18:03:19.775Z,42.92
2019-03-03T18:05:50.422Z,43.06
2019-03-03T18:08:20.206Z,43.14
2019-03-03T18:10:50.329Z,43.35
2019-03-03T18:13:20.025Z,43.59
2019-03-03T18:15:49.944Z,43.79
2019-03-03T18:18:20.258Z,43.73
2019-03-03T18:20:49.975Z,44.28
2019-03-03T18:23:19.647Z,44.22
2019-03-03T18:25:49.827Z,44.20
2019-03-03T18:28:19.504Z,44.39
2019-03-03T18:30:49.441Z,44.41
2019-03-03T18:33:19.561Z,45.04
2019-03-03T18:35:49.243Z,44.63
2019-03-03T18:38:18.945Z,44.83
2019-03-03T18:40:49.100Z,45.12
2019-03-03T18:43:18.886Z,44.94
2019-03-03T18:45:48.597Z,44.97
2019-03-03T18:48:18.982Z,45.27
2019-03-03T18:50:49.580Z,45.25
2019-03-03T18:53:19.357Z,45.00
2019-03-03T18:55:49.478Z,45.34
2019-03-03T18:58:19.198Z,45.25
2019-03-03T19:00:48.945Z,45.38
2019-03-03T19:03:19.119Z,45.60
2019-03-03T19:05:55.456Z,45.47
2019-03-03T19:08:20.687Z,45.50
2019-03-03T19:10:50.358Z,45.60
2019-03-03T19:13:19.996Z,45.67
2019-03-03T19:15:50.294Z,46.00
2019-03-03T19:18:20.143Z,45.99
2019-03-03T19:20:50.409Z,46.17
2019-03-03T19:23:20.547Z,46.18
2019-03-03T19:25:50.229Z,46.33
2019-03-03T19:28:21.384Z,46.40
2019-03-03T19:30:51.045Z,46.45
2019-03-03T19:33:26.789Z,46.83
2019-03-03T19:35:56.934Z,46.91
2019-03-03T19:38:26.703Z,47.36
2019-03-03T19:40:56.412Z,47.26
2019-03-03T19:43:28.098Z,47.37
2019-03-03T19:46:00.648Z,47.31
2019-03-03T19:48:30.866Z,47.29
2019-03-03T19:51:03.322Z,47.61
2019-03-03T19:53:34.067Z,47.76
2019-03-03T19:56:03.887Z,47.97
2019-03-03T19:58:33.592Z,47.91
2019-03-03T20:01:04.420Z,47.97
2019-03-03T20:03:34.472Z,48.21
2019-03-03T20:06:04.587Z,48.42
2019-03-03T20:08:34.899Z,48.65
2019-03-03T20:11:04.812Z,48.92
2019-03-03T20:13:34.758Z,49.33
2019-03-03T20:16:05.076Z,49.59
2019-03-03T20:18:35.009Z,50.13
2019-03-03T20:21:04.973Z,49.88
2019-03-03T20:23:35.854Z,50.60
2019-03-03T20:26:05.992Z,50.63
2019-03-03T20:28:36.442Z,50.67
2019-03-03T20:31:06.704Z,51.09
2019-03-03T20:33:36.688Z,51.67
2019-03-03T20:36:07.247Z,51.36
2019-03-03T20:38:37.549Z,51.79
2019-03-03T20:41:07.957Z,52.17
2019-03-03T20:43:38.753Z,52.59
2019-03-03T20:46:09.106Z,53.07
2019-03-03T20:48:42.834Z,53.17
2019-03-03T20:51:13.185Z,53.29
2019-03-03T20:53:43.487Z,53.89
2019-03-03T20:56:13.467Z,54.31
2019-03-03T20:58:43.794Z,54.88
2019-03-03T21:01:13.527Z,54.93
2019-03-03T21:03:43.315Z,55.41
2019-03-03T21:06:13.539Z,55.68
2019-03-03T21:08:53.689Z,56.13
2019-03-03T21:11:23.907Z,56.84
2019-03-03T21:13:53.621Z,56.78
2019-03-03T21:16:23.281Z,57.58
2019-03-03T21:18:53.314Z,57.71
2019-03-03T21:21:23.075Z,58.09
2019-03-03T21:23:52.846Z,58.24
2019-03-03T21:26:24.615Z,58.61
2019-03-03T21:28:54.268Z,59.48
2019-03-03T21:31:25.925Z,59.56
2019-03-03T21:33:58.844Z,59.40
2019-03-03T21:36:29.417Z,59.53
2019-03-03T21:39:00.191Z,59.94
2019-03-03T21:41:32.923Z,60.04
2019-03-03T21:44:09.139Z,60.07
2019-03-03T21:46:46.488Z,60.31
2019-03-03T21:49:16.569Z,60.37
2019-03-03T21:51:46.991Z,60.24
2019-03-03T21:54:16.864Z,60.37
2019-03-03T21:56:46.618Z,60.48
2019-03-03T21:59:19.831Z,61.10
2019-03-03T22:01:48.739Z,60.47
2019-03-03T22:04:19.348Z,60.55
2019-03-03T22:06:49.708Z,60.68
2019-03-03T22:09:23.157Z,61.01
2019-03-03T22:11:53.148Z,60.84
2019-03-03T22:14:23.582Z,61.81
2019-03-03T22:16:59.721Z,61.47
2019-03-03T22:19:31.204Z,61.18
2019-03-03T22:22:04.087Z,62.98
2019-03-03T22:24:34.230Z,61.85
2019-03-03T22:27:03.917Z,58.13
2019-03-03T22:29:33.617Z,58.72
2019-03-03T22:32:03.742Z,59.72
2019-03-03T22:34:33.439Z,60.79
2019-03-03T22:37:03.146Z,61.97
2019-03-03T22:39:33.364Z,61.80
2019-03-03T22:42:03.015Z,61.99
2019-03-03T22:44:32.597Z,62.25
2019-03-03T22:47:03.028Z,61.85
2019-03-03T22:49:33.010Z,61.93
2019-03-03T22:52:08.685Z,62.01
2019-03-03T22:54:40.978Z,62.35
2019-03-03T22:57:12.325Z,62.09
2019-03-03T22:59:44.045Z,62.30
2019-03-03T23:02:15.228Z,62.28
2019-03-03T23:05:04.141Z,62.49
2019-03-03T23:07:40.497Z,62.90
2019-03-03T23:10:39.673Z,62.83
2019-03-03T23:13:33.052Z,62.95
2019-03-03T23:16:15.436Z,62.92
2019-03-03T23:19:06.724Z,63.07
2019-03-03T23:21:46.480Z,63.04
2019-03-03T23:24:26.032Z,63.34
2019-03-03T23:27:05.264Z,63.42
2019-03-03T23:29:37.988Z,63.45
2019-03-03T23:32:11.024Z,63.43
2019-03-03T23:34:41.388Z,63.48
2019-03-03T23:37:11.539Z,63.25
2019-03-03T23:39:41.194Z,63.90
2019-03-03T23:42:10.866Z,63.80
2019-03-03T23:44:41.520Z,63.96
2019-03-03T23:47:11.612Z,64.12
2019-03-03T23:49:41.788Z,64.21
2019-03-03T23:52:12.549Z,64.75
2019-03-03T23:54:42.640Z,64.73
2019-03-03T23:57:13.193Z,65.04
2019-03-03T23:59:43.257Z,65.09
